createdAt,value
2023-03-23T15:58:13.595Z,42.80
2023-03-23T16:00:59.346Z,36.53
2023-03-23T16:03:45.116Z,29.17
2023-03-23T16:06:32.035Z,35.90
2023-03-23T16:09:17.670Z,38.27
2023-03-23T16:12:01.764Z,37.93
2023-03-23T16:14:47.124Z,35.33
2023-03-23T16:17:31.141Z,44.40
2023-03-23T16:20:16.966Z,36.57
2023-03-23T16:23:01.542Z,39.00
2023-03-23T16:25:45.686Z,32.93
2023-03-23T16:28:29.650Z,29.80
2023-03-23T16:31:15.146Z,37.23
2023-03-23T16:33:59.058Z,41.77
2023-03-23T16:36:43.081Z,27.03
2023-03-23T16:39:27.051Z,28.43
2023-03-23T16:42:11.273Z,51.50
2023-03-23T16:44:55.244Z,44.63
2023-03-23T16:47:41.144Z,50.43
2023-03-23T16:50:25.191Z,41.23
2023-03-23T16:53:10.374Z,59.60
2023-03-23T16:55:54.766Z,51.83
2023-03-23T16:58:42.787Z,45.03
2023-03-23T17:01:26.684Z,44.57
2023-03-23T17:04:12.189Z,47.27
2023-03-23T17:06:56.415Z,34.83
2023-03-23T17:09:42.643Z,35.37
2023-03-23T17:12:27.372Z,35.73
2023-03-23T17:15:12.782Z,90.93
2023-03-23T17:17:56.752Z,76.13
2023-03-23T17:20:43.624Z,46.80
2023-03-23T17:23:27.799Z,63.17
2023-03-23T17:26:11.790Z,72.10
2023-03-23T17:28:55.858Z,70.97
2023-03-23T17:31:41.401Z,48.07
2023-03-23T17:34:25.605Z,65.77
2023-03-23T17:37:11.812Z,49.83
2023-03-23T17:39:55.696Z,40.10
2023-03-23T17:42:39.903Z,58.33
2023-03-23T17:45:24.024Z,64.43
2023-03-23T17:48:08.736Z,66.30
2023-03-23T17:50:57.737Z,60.73
2023-03-23T17:53:43.377Z,56.90
2023-03-23T17:56:27.544Z,63.83
2023-03-23T17:59:12.517Z,39.70
2023-03-23T18:01:56.800Z,47.27
2023-03-23T18:04:41.012Z,45.10
2023-03-23T18:07:25.057Z,41.73
2023-03-23T18:10:13.144Z,44.50
2023-03-23T18:12:57.415Z,42.73
2023-03-23T18:15:46.926Z,49.00
2023-03-23T18:18:31.487Z,51.17
2023-03-23T18:21:15.582Z,53.00
2023-03-23T18:24:00.250Z,58.63
2023-03-23T18:26:45.841Z,57.80
2023-03-23T18:29:29.923Z,49.13
2023-03-23T18:32:14.090Z,48.50
2023-03-23T18:34:58.297Z,48.97
2023-03-23T18:37:43.706Z,51.73
2023-03-23T18:40:27.833Z,50.37
2023-03-23T18:43:14.131Z,58.50
2023-03-23T18:46:00.036Z,58.23
2023-03-23T18:48:44.319Z,50.30
2023-03-23T18:51:28.511Z,54.30
2023-03-23T18:54:13.578Z,61.47
2023-03-23T18:57:00.230Z,66.97
2023-03-23T18:59:46.481Z,77.20
2023-03-23T19:02:30.519Z,62.40
2023-03-23T19:05:14.551Z,68.27
2023-03-23T19:07:58.593Z,74.07
2023-03-23T19:10:44.346Z,68.27
2023-03-23T19:13:29.063Z,70.17
2023-03-23T19:16:14.956Z,67.73
2023-03-23T19:18:59.104Z,72.13
2023-03-23T19:21:46.907Z,68.80
2023-03-23T19:24:31.432Z,72.13
2023-03-23T19:27:15.554Z,69.83
2023-03-23T19:30:00.737Z,69.40
2023-03-23T19:32:46.761Z,68.63
2023-03-23T19:35:32.268Z,65.73
2023-03-23T19:38:16.190Z,72.40
2023-03-23T19:41:03.843Z,73.97
2023-03-23T19:43:49.506Z,78.90
2023-03-23T19:46:33.621Z,79.17
2023-03-23T19:49:19.883Z,77.37
2023-03-23T19:52:06.466Z,83.67
2023-03-23T19:54:54.936Z,92.77
2023-03-23T19:57:39.647Z,81.47
2023-03-23T20:00:25.023Z,74.33
2023-03-23T20:03:09.689Z,75.17
2023-03-23T20:06:01.536Z,73.77
2023-03-23T20:08:47.900Z,73.03
2023-03-23T20:11:32.337Z,68.13
2023-03-23T20:14:17.769Z,66.03
2023-03-23T20:17:01.979Z,62.43
2023-03-23T20:19:46.217Z,62.03
2023-03-23T20:22:31.713Z,55.00
2023-03-23T20:25:15.802Z,56.50
2023-03-23T20:28:00.371Z,56.03
2023-03-23T20:30:44.614Z,57.73
2023-03-23T20:33:30.720Z,56.13
2023-03-23T20:36:15.096Z,57.50
2023-03-23T20:39:01.378Z,55.17
2023-03-23T20:41:47.801Z,53.00
2023-03-23T20:44:35.200Z,53.03
2023-03-23T20:47:19.383Z,51.43
2023-03-23T20:50:05.386Z,53.47
2023-03-23T20:52:50.118Z,53.27
2023-03-23T20:55:35.588Z,51.40
2023-03-23T20:58:21.319Z,59.17
2023-03-23T21:01:07.162Z,61.77
2023-03-23T21:03:54.280Z,62.20
2023-03-23T21:06:38.387Z,75.40
2023-03-23T21:09:23.201Z,71.60
2023-03-23T21:12:09.702Z,68.53
2023-03-23T21:14:53.616Z,58.20
2023-03-23T21:17:37.558Z,54.10
2023-03-23T21:20:21.691Z,58.67
2023-03-23T21:23:06.387Z,65.30
2023-03-23T21:25:51.053Z,59.30
2023-03-23T21:28:36.933Z,57.93
2023-03-23T21:31:23.430Z,59.63
2023-03-23T21:34:07.559Z,61.33
2023-03-23T21:36:51.601Z,65.47
2023-03-23T21:39:35.763Z,67.17
2023-03-23T21:42:19.805Z,52.30
2023-03-23T21:45:06.205Z,50.03
2023-03-23T21:47:57.220Z,49.23
2023-03-23T21:50:42.984Z,50.70
2023-03-23T21:53:28.192Z,47.43
2023-03-23T21:56:13.020Z,46.17
2023-03-23T21:58:57.890Z,53.47
2023-03-23T22:01:43.325Z,50.27
2023-03-23T22:04:28.142Z,46.83
2023-03-23T22:07:13.794Z,51.53
2023-03-23T22:09:57.917Z,46.20
2023-03-23T22:12:42.608Z,50.70
2023-03-23T22:15:28.252Z,50.00
2023-03-23T22:18:13.867Z,55.60
2023-03-23T22:20:59.176Z,51.60
2023-03-23T22:23:43.930Z,64.67
2023-03-23T22:26:29.572Z,51.50
2023-03-23T22:29:16.989Z,47.10
2023-03-23T22:32:01.207Z,45.27
2023-03-23T22:34:47.467Z,45.73
2023-03-23T22:37:31.743Z,46.17
2023-03-23T22:40:15.911Z,46.43
2023-03-23T22:43:00.114Z,49.13
2023-03-23T22:45:44.212Z,56.00
2023-03-23T22:48:29.277Z,50.10
2023-03-23T22:51:16.539Z,44.00
2023-03-23T22:54:00.757Z,45.03
2023-03-23T22:56:44.766Z,52.47
2023-03-23T22:59:28.865Z,47.33
2023-03-23T23:02:12.871Z,45.27
2023-03-23T23:04:57.952Z,48.83
2023-03-23T23:07:43.294Z,47.30
2023-03-23T23:10:27.450Z,52.67
2023-03-23T23:13:13.200Z,47.80
2023-03-23T23:15:59.085Z,47.17
2023-03-23T23:18:43.249Z,44.43
2023-03-23T23:21:29.220Z,47.17
2023-03-23T23:24:14.898Z,47.33
2023-03-23T23:26:59.166Z,48.17
2023-03-23T23:29:43.292Z,49.23
2023-03-23T23:32:29.253Z,49.13
2023-03-23T23:35:14.423Z,44.90
2023-03-23T23:37:58.523Z,46.20
2023-03-23T23:40:46.269Z,48.63
2023-03-23T23:43:30.605Z,51.03
2023-03-23T23:46:14.735Z,46.60
2023-03-23T23:48:59.261Z,39.60
2023-03-23T23:51:44.820Z,43.77
2023-03-23T23:54:30.951Z,44.90
2023-03-23T23:57:16.929Z,44.33
